sensor_id;sensor_type;location;lat;lon;timestamp;P1;durP1;ratioP1;P2;durP2;ratioP2
18576;SDS011;9418;52.694;13.294;2022-12-18T00:01:58;41.10;;;24.40;;
18576;SDS011;9418;52.694;13.294;2022-12-18T00:04:25;41.37;;;25.43;;
18576;SDS011;9418;52.694;13.294;2022-12-18T00:06:52;36.83;;;23.83;;
18576;SDS011;9418;52.694;13.294;2022-12-18T00:09:19;38.87;;;23.60;;
18576;SDS011;9418;52.694;13.294;2022-12-18T00:11:46;37.10;;;22.90;;
18576;SDS011;9418;52.694;13.294;2022-12-18T00:14:14;37.57;;;23.37;;
18576;SDS011;9418;52.694;13.294;2022-12-18T00:16:42;37.27;;;23.80;;
18576;SDS011;9418;52.694;13.294;2022-12-18T00:19:10;37.17;;;23.73;;
18576;SDS011;9418;52.694;13.294;2022-12-18T00:21:41;35.87;;;23.37;;
18576;SDS011;9418;52.694;13.294;2022-12-18T00:24:09;37.40;;;23.73;;
18576;SDS011;9418;52.694;13.294;2022-12-18T00:26:36;41.73;;;26.03;;
18576;SDS011;9418;52.694;13.294;2022-12-18T00:29:05;45.07;;;25.23;;
18576;SDS011;9418;52.694;13.294;2022-12-18T00:31:34;39.07;;;26.27;;
18576;SDS011;9418;52.694;13.294;2022-12-18T00:34:01;43.40;;;26.80;;
18576;SDS011;9418;52.694;13.294;2022-12-18T00:36:28;36.23;;;24.13;;
18576;SDS011;9418;52.694;13.294;2022-12-18T00:38:57;39.23;;;24.27;;
18576;SDS011;9418;52.694;13.294;2022-12-18T00:41:25;37.60;;;22.20;;
18576;SDS011;9418;52.694;13.294;2022-12-18T00:44:11;37.67;;;21.80;;
18576;SDS011;9418;52.694;13.294;2022-12-18T00:46:40;39.30;;;23.50;;
18576;SDS011;9418;52.694;13.294;2022-12-18T00:49:07;38.07;;;23.43;;
18576;SDS011;9418;52.694;13.294;2022-12-18T00:51:33;36.53;;;21.33;;
18576;SDS011;9418;52.694;13.294;2022-12-18T00:54:00;34.50;;;21.33;;
18576;SDS011;9418;52.694;13.294;2022-12-18T00:56:27;33.00;;;22.20;;
18576;SDS011;9418;52.694;13.294;2022-12-18T00:58:53;37.80;;;22.30;;
18576;SDS011;9418;52.694;13.294;2022-12-18T01:01:20;38.50;;;24.50;;
18576;SDS011;9418;52.694;13.294;2022-12-18T01:03:48;36.57;;;23.03;;
18576;SDS011;9418;52.694;13.294;2022-12-18T01:06:15;37.07;;;23.83;;
18576;SDS011;9418;52.694;13.294;2022-12-18T01:08:42;37.50;;;24.00;;
18576;SDS011;9418;52.694;13.294;2022-12-18T01:11:09;44.60;;;26.33;;
18576;SDS011;9418;52.694;13.294;2022-12-18T01:13:37;43.43;;;25.67;;
18576;SDS011;9418;52.694;13.294;2022-12-18T01:16:04;39.73;;;24.83;;
18576;SDS011;9418;52.694;13.294;2022-12-18T01:18:31;39.47;;;24.47;;
18576;SDS011;9418;52.694;13.294;2022-12-18T01:20:59;41.50;;;25.23;;
18576;SDS011;9418;52.694;13.294;2022-12-18T01:23:28;40.27;;;24.97;;
18576;SDS011;9418;52.694;13.294;2022-12-18T01:25:55;42.93;;;25.53;;
18576;SDS011;9418;52.694;13.294;2022-12-18T01:28:21;38.47;;;23.53;;
18576;SDS011;9418;52.694;13.294;2022-12-18T01:30:48;38.27;;;23.07;;
18576;SDS011;9418;52.694;13.294;2022-12-18T01:33:14;42.27;;;24.97;;
18576;SDS011;9418;52.694;13.294;2022-12-18T01:35:41;37.33;;;24.53;;
18576;SDS011;9418;52.694;13.294;2022-12-18T01:38:12;40.20;;;23.20;;
18576;SDS011;9418;52.694;13.294;2022-12-18T01:40:38;43.27;;;25.10;;
18576;SDS011;9418;52.694;13.294;2022-12-18T01:43:05;40.30;;;23.47;;
18576;SDS011;9418;52.694;13.294;2022-12-18T01:45:33;40.60;;;24.10;;
18576;SDS011;9418;52.694;13.294;2022-12-18T01:48:00;41.10;;;24.20;;
18576;SDS011;9418;52.694;13.294;2022-12-18T01:50:29;39.73;;;23.93;;
18576;SDS011;9418;52.694;13.294;2022-12-18T01:52:59;38.50;;;23.43;;
18576;SDS011;9418;52.694;13.294;2022-12-18T01:55:30;39.57;;;23.63;;
18576;SDS011;9418;52.694;13.294;2022-12-18T01:58:00;36.40;;;22.77;;
18576;SDS011;9418;52.694;13.294;2022-12-18T02:00:28;35.77;;;22.00;;
18576;SDS011;9418;52.694;13.294;2022-12-18T02:02:55;39.13;;;23.47;;
18576;SDS011;9418;52.694;13.294;2022-12-18T02:05:23;40.93;;;22.40;;
18576;SDS011;9418;52.694;13.294;2022-12-18T02:08:02;33.33;;;21.50;;
18576;SDS011;9418;52.694;13.294;2022-12-18T02:10:38;37.67;;;23.50;;
18576;SDS011;9418;52.694;13.294;2022-12-18T02:13:12;37.73;;;23.50;;
18576;SDS011;9418;52.694;13.294;2022-12-18T02:15:45;41.10;;;23.80;;
18576;SDS011;9418;52.694;13.294;2022-12-18T02:18:18;41.70;;;23.67;;
18576;SDS011;9418;52.694;13.294;2022-12-18T02:20:49;38.30;;;23.67;;
18576;SDS011;9418;52.694;13.294;2022-12-18T02:23:24;38.37;;;23.07;;
18576;SDS011;9418;52.694;13.294;2022-12-18T02:26:07;37.80;;;23.00;;
18576;SDS011;9418;52.694;13.294;2022-12-18T02:28:44;32.57;;;21.67;;
18576;SDS011;9418;52.694;13.294;2022-12-18T02:31:14;37.53;;;23.63;;
18576;SDS011;9418;52.694;13.294;2022-12-18T02:33:48;32.73;;;21.90;;
18576;SDS011;9418;52.694;13.294;2022-12-18T02:36:18;33.63;;;21.67;;
18576;SDS011;9418;52.694;13.294;2022-12-18T02:38:47;41.50;;;24.10;;
18576;SDS011;9418;52.694;13.294;2022-12-18T02:41:16;38.40;;;23.07;;
18576;SDS011;9418;52.694;13.294;2022-12-18T02:43:46;35.07;;;22.47;;
18576;SDS011;9418;52.694;13.294;2022-12-18T02:46:25;35.03;;;22.43;;
18576;SDS011;9418;52.694;13.294;2022-12-18T02:48:54;33.70;;;21.33;;
18576;SDS011;9418;52.694;13.294;2022-12-18T02:51:31;37.30;;;22.00;;
18576;SDS011;9418;52.694;13.294;2022-12-18T02:54:10;41.23;;;24.47;;
18576;SDS011;9418;52.694;13.294;2022-12-18T02:56:48;40.00;;;24.37;;
18576;SDS011;9418;52.694;13.294;2022-12-18T02:59:17;41.30;;;23.57;;
18576;SDS011;9418;52.694;13.294;2022-12-18T03:01:49;43.43;;;24.20;;
18576;SDS011;9418;52.694;13.294;2022-12-18T03:04:23;44.60;;;25.87;;
18576;SDS011;9418;52.694;13.294;2022-12-18T03:06:53;40.60;;;25.10;;
18576;SDS011;9418;52.694;13.294;2022-12-18T03:09:25;42.50;;;25.00;;
18576;SDS011;9418;52.694;13.294;2022-12-18T03:11:58;41.87;;;24.87;;
18576;SDS011;9418;52.694;13.294;2022-12-18T03:14:50;43.37;;;24.13;;
18576;SDS011;9418;52.694;13.294;2022-12-18T03:17:22;32.27;;;21.47;;
18576;SDS011;9418;52.694;13.294;2022-12-18T03:19:51;30.37;;;19.60;;
18576;SDS011;9418;52.694;13.294;2022-12-18T03:22:19;35.50;;;21.30;;
18576;SDS011;9418;52.694;13.294;2022-12-18T03:24:49;35.97;;;22.00;;
18576;SDS011;9418;52.694;13.294;2022-12-18T03:27:18;32.87;;;20.67;;
18576;SDS011;9418;52.694;13.294;2022-12-18T03:29:50;36.57;;;24.07;;
18576;SDS011;9418;52.694;13.294;2022-12-18T03:32:21;39.07;;;22.87;;
18576;SDS011;9418;52.694;13.294;2022-12-18T03:34:51;34.03;;;21.57;;
18576;SDS011;9418;52.694;13.294;2022-12-18T03:37:21;38.60;;;22.47;;
18576;SDS011;9418;52.694;13.294;2022-12-18T03:39:47;31.60;;;21.13;;
18576;SDS011;9418;52.694;13.294;2022-12-18T03:42:15;34.83;;;23.13;;
18576;SDS011;9418;52.694;13.294;2022-12-18T03:44:53;35.53;;;21.97;;
18576;SDS011;9418;52.694;13.294;2022-12-18T03:47:25;36.50;;;22.70;;
18576;SDS011;9418;52.694;13.294;2022-12-18T03:49:56;42.07;;;25.00;;
18576;SDS011;9418;52.694;13.294;2022-12-18T03:52:30;38.97;;;23.43;;
18576;SDS011;9418;52.694;13.294;2022-12-18T03:55:02;40.80;;;25.13;;
18576;SDS011;9418;52.694;13.294;2022-12-18T03:57:32;37.13;;;24.00;;
18576;SDS011;9418;52.694;13.294;2022-12-18T04:00:00;37.97;;;23.80;;
18576;SDS011;9418;52.694;13.294;2022-12-18T04:02:29;36.30;;;22.93;;
18576;SDS011;9418;52.694;13.294;2022-12-18T04:04:58;37.00;;;23.43;;
18576;SDS011;9418;52.694;13.294;2022-12-18T04:07:29;42.07;;;25.20;;
18576;SDS011;9418;52.694;13.294;2022-12-18T04:09:56;40.40;;;23.27;;
18576;SDS011;9418;52.694;13.294;2022-12-18T04:12:24;42.17;;;23.60;;
18576;SDS011;9418;52.694;13.294;2022-12-18T04:14:53;44.57;;;22.37;;
18576;SDS011;9418;52.694;13.294;2022-12-18T04:17:20;38.30;;;24.47;;
18576;SDS011;9418;52.694;13.294;2022-12-18T04:19:47;46.93;;;25.80;;
18576;SDS011;9418;52.694;13.294;2022-12-18T04:22:13;43.33;;;26.50;;
18576;SDS011;9418;52.694;13.294;2022-12-18T04:24:40;39.10;;;24.40;;
18576;SDS011;9418;52.694;13.294;2022-12-18T04:27:07;42.90;;;25.00;;
18576;SDS011;9418;52.694;13.294;2022-12-18T04:29:33;38.60;;;24.60;;
18576;SDS011;9418;52.694;13.294;2022-12-18T04:32:01;48.20;;;27.93;;
18576;SDS011;9418;52.694;13.294;2022-12-18T04:34:28;50.80;;;28.37;;
18576;SDS011;9418;52.694;13.294;2022-12-18T04:36:54;51.93;;;29.47;;
18576;SDS011;9418;52.694;13.294;2022-12-18T04:39:21;51.23;;;28.90;;
18576;SDS011;9418;52.694;13.294;2022-12-18T04:41:47;57.43;;;28.63;;
18576;SDS011;9418;52.694;13.294;2022-12-18T04:44:14;58.10;;;30.27;;
18576;SDS011;9418;52.694;13.294;2022-12-18T04:46:40;58.30;;;31.43;;
18576;SDS011;9418;52.694;13.294;2022-12-18T04:49:08;59.73;;;33.10;;
18576;SDS011;9418;52.694;13.294;2022-12-18T04:51:35;55.63;;;32.27;;
18576;SDS011;9418;52.694;13.294;2022-12-18T04:54:02;54.97;;;31.73;;
18576;SDS011;9418;52.694;13.294;2022-12-18T04:56:30;61.73;;;33.10;;
18576;SDS011;9418;52.694;13.294;2022-12-18T04:58:57;59.47;;;32.87;;
18576;SDS011;9418;52.694;13.294;2022-12-18T05:01:23;60.73;;;33.97;;
18576;SDS011;9418;52.694;13.294;2022-12-18T05:03:50;77.63;;;34.67;;
18576;SDS011;9418;52.694;13.294;2022-12-18T05:06:18;59.07;;;34.27;;
18576;SDS011;9418;52.694;13.294;2022-12-18T05:08:45;59.17;;;33.13;;
18576;SDS011;9418;52.694;13.294;2022-12-18T05:11:13;59.40;;;33.20;;
18576;SDS011;9418;52.694;13.294;2022-12-18T05:13:41;68.00;;;36.07;;
18576;SDS011;9418;52.694;13.294;2022-12-18T05:16:07;60.77;;;34.07;;
18576;SDS011;9418;52.694;13.294;2022-12-18T05:18:34;57.40;;;33.37;;
18576;SDS011;9418;52.694;13.294;2022-12-18T05:21:01;62.40;;;33.17;;
18576;SDS011;9418;52.694;13.294;2022-12-18T05:23:29;61.87;;;33.70;;
18576;SDS011;9418;52.694;13.294;2022-12-18T05:25:56;58.90;;;33.93;;
18576;SDS011;9418;52.694;13.294;2022-12-18T05:28:24;63.33;;;35.53;;
18576;SDS011;9418;52.694;13.294;2022-12-18T05:30:53;61.97;;;36.00;;
18576;SDS011;9418;52.694;13.294;2022-12-18T05:33:21;72.20;;;34.93;;
18576;SDS011;9418;52.694;13.294;2022-12-18T05:35:50;69.50;;;36.40;;
18576;SDS011;9418;52.694;13.294;2022-12-18T05:38:17;67.50;;;36.40;;
18576;SDS011;9418;52.694;13.294;2022-12-18T05:40:45;62.10;;;34.00;;
18576;SDS011;9418;52.694;13.294;2022-12-18T05:43:12;65.53;;;36.20;;
18576;SDS011;9418;52.694;13.294;2022-12-18T05:45:39;66.43;;;36.20;;
18576;SDS011;9418;52.694;13.294;2022-12-18T05:48:06;67.10;;;37.00;;
18576;SDS011;9418;52.694;13.294;2022-12-18T05:50:33;68.40;;;35.60;;
18576;SDS011;9418;52.694;13.294;2022-12-18T05:53:00;67.17;;;36.73;;
18576;SDS011;9418;52.694;13.294;2022-12-18T05:55:27;73.87;;;36.40;;
18576;SDS011;9418;52.694;13.294;2022-12-18T05:57:55;66.67;;;37.07;;
18576;SDS011;9418;52.694;13.294;2022-12-18T06:00:22;70.23;;;37.10;;
18576;SDS011;9418;52.694;13.294;2022-12-18T06:02:48;72.63;;;37.63;;
18576;SDS011;9418;52.694;13.294;2022-12-18T06:05:15;73.07;;;38.50;;
18576;SDS011;9418;52.694;13.294;2022-12-18T06:07:42;64.77;;;36.40;;
18576;SDS011;9418;52.694;13.294;2022-12-18T06:10:08;75.50;;;39.17;;
18576;SDS011;9418;52.694;13.294;2022-12-18T06:12:35;75.07;;;39.80;;
18576;SDS011;9418;52.694;13.294;2022-12-18T06:15:03;65.87;;;35.57;;
18576;SDS011;9418;52.694;13.294;2022-12-18T06:17:30;59.00;;;34.30;;
18576;SDS011;9418;52.694;13.294;2022-12-18T06:19:57;59.80;;;34.53;;
18576;SDS011;9418;52.694;13.294;2022-12-18T06:22:24;69.83;;;35.17;;
18576;SDS011;9418;52.694;13.294;2022-12-18T06:24:51;58.77;;;31.13;;
18576;SDS011;9418;52.694;13.294;2022-12-18T06:27:17;56.87;;;31.67;;
18576;SDS011;9418;52.694;13.294;2022-12-18T06:29:44;52.80;;;30.37;;
18576;SDS011;9418;52.694;13.294;2022-12-18T06:32:12;51.50;;;29.30;;
18576;SDS011;9418;52.694;13.294;2022-12-18T06:34:39;48.67;;;29.13;;
18576;SDS011;9418;52.694;13.294;2022-12-18T06:37:05;51.90;;;30.83;;
18576;SDS011;9418;52.694;13.294;2022-12-18T06:39:32;54.40;;;29.53;;
18576;SDS011;9418;52.694;13.294;2022-12-18T06:41:58;50.90;;;28.33;;
18576;SDS011;9418;52.694;13.294;2022-12-18T06:44:26;49.80;;;28.43;;
18576;SDS011;9418;52.694;13.294;2022-12-18T06:46:52;50.00;;;28.43;;
18576;SDS011;9418;52.694;13.294;2022-12-18T06:49:20;46.53;;;26.67;;
18576;SDS011;9418;52.694;13.294;2022-12-18T06:51:47;52.63;;;29.13;;
18576;SDS011;9418;52.694;13.294;2022-12-18T06:54:13;52.90;;;29.77;;
18576;SDS011;9418;52.694;13.294;2022-12-18T06:56:39;48.13;;;29.40;;
18576;SDS011;9418;52.694;13.294;2022-12-18T06:59:06;53.33;;;28.03;;
18576;SDS011;9418;52.694;13.294;2022-12-18T07:01:33;52.10;;;27.70;;
18576;SDS011;9418;52.694;13.294;2022-12-18T07:03:59;46.60;;;27.27;;
18576;SDS011;9418;52.694;13.294;2022-12-18T07:06:27;49.77;;;27.87;;
18576;SDS011;9418;52.694;13.294;2022-12-18T07:08:53;51.10;;;29.60;;
18576;SDS011;9418;52.694;13.294;2022-12-18T07:11:20;45.17;;;26.57;;
18576;SDS011;9418;52.694;13.294;2022-12-18T07:13:47;44.50;;;26.60;;
18576;SDS011;9418;52.694;13.294;2022-12-18T07:16:14;49.90;;;32.17;;
18576;SDS011;9418;52.694;13.294;2022-12-18T07:18:42;205.63;;;163.80;;
18576;SDS011;9418;52.694;13.294;2022-12-18T07:21:10;101.97;;;80.73;;
18576;SDS011;9418;52.694;13.294;2022-12-18T07:23:39;56.10;;;37.20;;
18576;SDS011;9418;52.694;13.294;2022-12-18T07:26:07;60.47;;;37.80;;
18576;SDS011;9418;52.694;13.294;2022-12-18T07:28:35;48.27;;;27.87;;
18576;SDS011;9418;52.694;13.294;2022-12-18T07:31:02;44.70;;;25.40;;
18576;SDS011;9418;52.694;13.294;2022-12-18T07:33:29;44.47;;;28.10;;
18576;SDS011;9418;52.694;13.294;2022-12-18T07:35:56;41.30;;;25.03;;
18576;SDS011;9418;52.694;13.294;2022-12-18T07:38:24;42.87;;;25.83;;
18576;SDS011;9418;52.694;13.294;2022-12-18T07:40:52;47.97;;;27.50;;
18576;SDS011;9418;52.694;13.294;2022-12-18T07:43:18;47.90;;;27.33;;
18576;SDS011;9418;52.694;13.294;2022-12-18T07:45:45;51.60;;;27.40;;
18576;SDS011;9418;52.694;13.294;2022-12-18T07:48:15;49.77;;;26.40;;
18576;SDS011;9418;52.694;13.294;2022-12-18T07:50:41;47.65;;;26.35;;
18576;SDS011;9418;52.694;13.294;2022-12-18T07:53:08;48.17;;;26.57;;
18576;SDS011;9418;52.694;13.294;2022-12-18T07:55:34;53.13;;;28.60;;
18576;SDS011;9418;52.694;13.294;2022-12-18T07:58:02;51.63;;;26.43;;
18576;SDS011;9418;52.694;13.294;2022-12-18T08:00:29;50.03;;;27.50;;
18576;SDS011;9418;52.694;13.294;2022-12-18T08:02:56;47.40;;;27.70;;
18576;SDS011;9418;52.694;13.294;2022-12-18T08:05:23;45.43;;;24.63;;
18576;SDS011;9418;52.694;13.294;2022-12-18T08:07:50;51.50;;;27.07;;
18576;SDS011;9418;52.694;13.294;2022-12-18T08:10:16;49.13;;;29.03;;
18576;SDS011;9418;52.694;13.294;2022-12-18T08:12:43;48.60;;;27.50;;
18576;SDS011;9418;52.694;13.294;2022-12-18T08:15:11;51.37;;;30.07;;
18576;SDS011;9418;52.694;13.294;2022-12-18T08:17:38;47.27;;;29.13;;
18576;SDS011;9418;52.694;13.294;2022-12-18T08:20:04;60.47;;;30.00;;
18576;SDS011;9418;52.694;13.294;2022-12-18T08:22:33;53.37;;;29.57;;
18576;SDS011;9418;52.694;13.294;2022-12-18T08:25:00;61.93;;;31.97;;
18576;SDS011;9418;52.694;13.294;2022-12-18T08:27:26;49.97;;;28.60;;
18576;SDS011;9418;52.694;13.294;2022-12-18T08:29:53;53.13;;;28.23;;
18576;SDS011;9418;52.694;13.294;2022-12-18T08:32:21;47.20;;;27.10;;
18576;SDS011;9418;52.694;13.294;2022-12-18T08:34:48;44.23;;;27.17;;
18576;SDS011;9418;52.694;13.294;2022-12-18T08:37:14;51.60;;;28.17;;
18576;SDS011;9418;52.694;13.294;2022-12-18T08:39:40;46.07;;;25.27;;
18576;SDS011;9418;52.694;13.294;2022-12-18T08:42:07;48.53;;;26.50;;
18576;SDS011;9418;52.694;13.294;2022-12-18T08:44:51;48.50;;;26.67;;
18576;SDS011;9418;52.694;13.294;2022-12-18T08:47:18;42.37;;;26.97;;
18576;SDS011;9418;52.694;13.294;2022-12-18T08:49:46;53.27;;;28.83;;
18576;SDS011;9418;52.694;13.294;2022-12-18T08:52:12;45.43;;;26.37;;
18576;SDS011;9418;52.694;13.294;2022-12-18T08:54:39;45.80;;;26.30;;
18576;SDS011;9418;52.694;13.294;2022-12-18T08:57:05;48.53;;;29.20;;
18576;SDS011;9418;52.694;13.294;2022-12-18T08:59:32;49.40;;;26.60;;
18576;SDS011;9418;52.694;13.294;2022-12-18T09:01:59;54.73;;;28.97;;
18576;SDS011;9418;52.694;13.294;2022-12-18T09:04:25;48.87;;;26.97;;
18576;SDS011;9418;52.694;13.294;2022-12-18T09:06:53;53.43;;;30.50;;
18576;SDS011;9418;52.694;13.294;2022-12-18T09:09:21;47.57;;;28.73;;
18576;SDS011;9418;52.694;13.294;2022-12-18T09:11:47;42.00;;;26.03;;
18576;SDS011;9418;52.694;13.294;2022-12-18T09:14:14;49.60;;;27.43;;
18576;SDS011;9418;52.694;13.294;2022-12-18T09:16:40;47.60;;;27.93;;
18576;SDS011;9418;52.694;13.294;2022-12-18T09:19:07;46.83;;;26.70;;
18576;SDS011;9418;52.694;13.294;2022-12-18T09:21:35;44.77;;;26.57;;
18576;SDS011;9418;52.694;13.294;2022-12-18T09:24:05;43.60;;;26.60;;
18576;SDS011;9418;52.694;13.294;2022-12-18T09:26:32;46.63;;;27.47;;
18576;SDS011;9418;52.694;13.294;2022-12-18T09:28:58;52.43;;;27.57;;
18576;SDS011;9418;52.694;13.294;2022-12-18T09:31:25;52.03;;;28.90;;
18576;SDS011;9418;52.694;13.294;2022-12-18T09:33:51;55.77;;;29.83;;
18576;SDS011;9418;52.694;13.294;2022-12-18T09:36:18;55.47;;;30.97;;
18576;SDS011;9418;52.694;13.294;2022-12-18T09:38:45;53.83;;;30.13;;
18576;SDS011;9418;52.694;13.294;2022-12-18T09:41:23;56.77;;;29.07;;
18576;SDS011;9418;52.694;13.294;2022-12-18T09:44:14;46.57;;;27.73;;
18576;SDS011;9418;52.694;13.294;2022-12-18T09:46:46;46.33;;;27.77;;
18576;SDS011;9418;52.694;13.294;2022-12-18T09:49:18;45.40;;;26.60;;
18576;SDS011;9418;52.694;13.294;2022-12-18T09:51:49;45.87;;;26.17;;
18576;SDS011;9418;52.694;13.294;2022-12-18T09:54:20;48.57;;;25.37;;
18576;SDS011;9418;52.694;13.294;2022-12-18T09:56:50;46.83;;;27.13;;
18576;SDS011;9418;52.694;13.294;2022-12-18T09:59:18;46.73;;;28.73;;
18576;SDS011;9418;52.694;13.294;2022-12-18T10:01:49;45.03;;;25.87;;
18576;SDS011;9418;52.694;13.294;2022-12-18T10:04:15;51.20;;;26.70;;
18576;SDS011;9418;52.694;13.294;2022-12-18T10:06:43;44.20;;;25.93;;
18576;SDS011;9418;52.694;13.294;2022-12-18T10:09:15;39.00;;;25.30;;
18576;SDS011;9418;52.694;13.294;2022-12-18T10:11:53;38.37;;;23.67;;
18576;SDS011;9418;52.694;13.294;2022-12-18T10:14:30;39.63;;;25.20;;
18576;SDS011;9418;52.694;13.294;2022-12-18T10:17:03;42.17;;;24.83;;
18576;SDS011;9418;52.694;13.294;2022-12-18T10:19:40;41.13;;;24.83;;
18576;SDS011;9418;52.694;13.294;2022-12-18T10:22:17;38.17;;;23.73;;
18576;SDS011;9418;52.694;13.294;2022-12-18T10:24:59;38.10;;;23.27;;
18576;SDS011;9418;52.694;13.294;2022-12-18T10:27:31;34.20;;;21.40;;
18576;SDS011;9418;52.694;13.294;2022-12-18T10:29:57;36.13;;;22.23;;
18576;SDS011;9418;52.694;13.294;2022-12-18T10:32:26;37.33;;;22.57;;
18576;SDS011;9418;52.694;13.294;2022-12-18T10:34:55;35.90;;;22.13;;
18576;SDS011;9418;52.694;13.294;2022-12-18T10:37:24;39.07;;;24.40;;
18576;SDS011;9418;52.694;13.294;2022-12-18T10:40:04;37.17;;;22.20;;
18576;SDS011;9418;52.694;13.294;2022-12-18T10:42:35;40.40;;;24.00;;
18576;SDS011;9418;52.694;13.294;2022-12-18T10:45:03;48.33;;;26.30;;
18576;SDS011;9418;52.694;13.294;2022-12-18T10:47:34;38.17;;;24.17;;
18576;SDS011;9418;52.694;13.294;2022-12-18T10:50:00;41.33;;;24.80;;
18576;SDS011;9418;52.694;13.294;2022-12-18T10:52:27;41.73;;;23.43;;
18576;SDS011;9418;52.694;13.294;2022-12-18T10:54:54;38.80;;;23.97;;
18576;SDS011;9418;52.694;13.294;2022-12-18T10:57:30;42.53;;;25.43;;
18576;SDS011;9418;52.694;13.294;2022-12-18T11:00:13;41.20;;;24.40;;
18576;SDS011;9418;52.694;13.294;2022-12-18T11:02:47;40.93;;;23.83;;
18576;SDS011;9418;52.694;13.294;2022-12-18T11:05:22;36.40;;;21.60;;
18576;SDS011;9418;52.694;13.294;2022-12-18T11:07:53;43.07;;;25.43;;
18576;SDS011;9418;52.694;13.294;2022-12-18T11:10:22;44.20;;;25.90;;
18576;SDS011;9418;52.694;13.294;2022-12-18T11:12:51;42.80;;;26.10;;
18576;SDS011;9418;52.694;13.294;2022-12-18T11:15:20;42.80;;;25.63;;
18576;SDS011;9418;52.694;13.294;2022-12-18T11:17:50;43.90;;;25.20;;
18576;SDS011;9418;52.694;13.294;2022-12-18T11:20:23;40.57;;;24.07;;
18576;SDS011;9418;52.694;13.294;2022-12-18T11:22:57;43.83;;;25.13;;
18576;SDS011;9418;52.694;13.294;2022-12-18T11:25:25;43.60;;;24.97;;
18576;SDS011;9418;52.694;13.294;2022-12-18T11:27:53;46.63;;;24.23;;
18576;SDS011;9418;52.694;13.294;2022-12-18T11:30:24;42.53;;;24.00;;
18576;SDS011;9418;52.694;13.294;2022-12-18T11:32:53;48.70;;;26.87;;
18576;SDS011;9418;52.694;13.294;2022-12-18T11:35:23;42.10;;;24.97;;
18576;SDS011;9418;52.694;13.294;2022-12-18T11:38:05;38.70;;;24.90;;
18576;SDS011;9418;52.694;13.294;2022-12-18T11:40:36;51.23;;;25.70;;
18576;SDS011;9418;52.694;13.294;2022-12-18T11:43:06;43.83;;;25.90;;
18576;SDS011;9418;52.694;13.294;2022-12-18T11:45:40;44.37;;;24.40;;
18576;SDS011;9418;52.694;13.294;2022-12-18T11:48:11;44.47;;;24.67;;
18576;SDS011;9418;52.694;13.294;2022-12-18T11:50:42;40.80;;;24.80;;
18576;SDS011;9418;52.694;13.294;2022-12-18T11:53:13;45.87;;;25.43;;
18576;SDS011;9418;52.694;13.294;2022-12-18T11:55:41;49.10;;;25.60;;
18576;SDS011;9418;52.694;13.294;2022-12-18T11:58:17;45.50;;;24.70;;
18576;SDS011;9418;52.694;13.294;2022-12-18T12:00:56;41.83;;;24.97;;
18576;SDS011;9418;52.694;13.294;2022-12-18T12:03:39;44.53;;;24.10;;
18576;SDS011;9418;52.694;13.294;2022-12-18T12:06:26;49.53;;;25.97;;
18576;SDS011;9418;52.694;13.294;2022-12-18T12:09:07;46.27;;;26.70;;
18576;SDS011;9418;52.694;13.294;2022-12-18T12:11:41;41.33;;;25.00;;
18576;SDS011;9418;52.694;13.294;2022-12-18T12:14:19;48.63;;;25.37;;
18576;SDS011;9418;52.694;13.294;2022-12-18T12:16:58;42.50;;;25.40;;
18576;SDS011;9418;52.694;13.294;2022-12-18T12:19:35;38.80;;;25.70;;
18576;SDS011;9418;52.694;13.294;2022-12-18T12:22:08;51.70;;;24.37;;
18576;SDS011;9418;52.694;13.294;2022-12-18T12:24:47;39.70;;;23.03;;
18576;SDS011;9418;52.694;13.294;2022-12-18T12:27:26;43.60;;;24.07;;
18576;SDS011;9418;52.694;13.294;2022-12-18T12:30:03;43.87;;;23.53;;
18576;SDS011;9418;52.694;13.294;2022-12-18T12:32:40;50.87;;;27.13;;
18576;SDS011;9418;52.694;13.294;2022-12-18T12:35:17;38.47;;;23.50;;
18576;SDS011;9418;52.694;13.294;2022-12-18T12:37:53;40.03;;;23.97;;
18576;SDS011;9418;52.694;13.294;2022-12-18T12:40:24;46.03;;;25.77;;
18576;SDS011;9418;52.694;13.294;2022-12-18T12:42:54;40.57;;;24.07;;
18576;SDS011;9418;52.694;13.294;2022-12-18T12:45:39;38.87;;;22.13;;
18576;SDS011;9418;52.694;13.294;2022-12-18T12:48:13;39.10;;;23.90;;
18576;SDS011;9418;52.694;13.294;2022-12-18T12:50:45;46.33;;;24.83;;
18576;SDS011;9418;52.694;13.294;2022-12-18T12:53:16;38.10;;;22.50;;
18576;SDS011;9418;52.694;13.294;2022-12-18T12:55:49;40.80;;;23.70;;
18576;SDS011;9418;52.694;13.294;2022-12-18T12:58:18;36.60;;;21.87;;
18576;SDS011;9418;52.694;13.294;2022-12-18T13:00:59;36.90;;;23.20;;
18576;SDS011;9418;52.694;13.294;2022-12-18T13:03:42;39.57;;;23.80;;
18576;SDS011;9418;52.694;13.294;2022-12-18T13:06:16;36.83;;;21.53;;
18576;SDS011;9418;52.694;13.294;2022-12-18T13:08:51;39.97;;;24.00;;
18576;SDS011;9418;52.694;13.294;2022-12-18T13:11:31;35.33;;;21.93;;
18576;SDS011;9418;52.694;13.294;2022-12-18T13:14:20;30.87;;;20.40;;
18576;SDS011;9418;52.694;13.294;2022-12-18T13:16:48;33.43;;;19.20;;
18576;SDS011;9418;52.694;13.294;2022-12-18T13:19:22;35.50;;;21.23;;
18576;SDS011;9418;52.694;13.294;2022-12-18T13:21:52;31.30;;;20.77;;
18576;SDS011;9418;52.694;13.294;2022-12-18T13:24:23;33.53;;;20.23;;
18576;SDS011;9418;52.694;13.294;2022-12-18T13:26:51;33.67;;;20.67;;
18576;SDS011;9418;52.694;13.294;2022-12-18T13:32:18;43.60;;;25.23;;
18576;SDS011;9418;52.694;13.294;2022-12-18T13:34:47;36.20;;;22.20;;
18576;SDS011;9418;52.694;13.294;2022-12-18T13:43:22;38.83;;;21.70;;
18576;SDS011;9418;52.694;13.294;2022-12-18T13:45:59;37.63;;;21.10;;
18576;SDS011;9418;52.694;13.294;2022-12-18T13:48:32;33.23;;;20.60;;
18576;SDS011;9418;52.694;13.294;2022-12-18T13:51:04;36.40;;;21.53;;
18576;SDS011;9418;52.694;13.294;2022-12-18T13:53:33;33.90;;;21.80;;
18576;SDS011;9418;52.694;13.294;2022-12-18T13:56:04;35.40;;;20.00;;
18576;SDS011;9418;52.694;13.294;2022-12-18T13:58:31;35.53;;;22.20;;
18576;SDS011;9418;52.694;13.294;2022-12-18T14:00:57;26.50;;;16.03;;
18576;SDS011;9418;52.694;13.294;2022-12-18T14:03:27;24.57;;;15.27;;
18576;SDS011;9418;52.694;13.294;2022-12-18T14:05:56;28.67;;;19.23;;
18576;SDS011;9418;52.694;13.294;2022-12-18T14:08:32;28.57;;;17.30;;
18576;SDS011;9418;52.694;13.294;2022-12-18T14:11:01;33.10;;;19.20;;
18576;SDS011;9418;52.694;13.294;2022-12-18T14:13:30;38.47;;;22.90;;
18576;SDS011;9418;52.694;13.294;2022-12-18T14:15:59;29.37;;;17.23;;
18576;SDS011;9418;52.694;13.294;2022-12-18T14:18:29;29.50;;;17.87;;
18576;SDS011;9418;52.694;13.294;2022-12-18T14:21:00;28.80;;;18.10;;
18576;SDS011;9418;52.694;13.294;2022-12-18T14:23:31;34.60;;;19.87;;
18576;SDS011;9418;52.694;13.294;2022-12-18T14:25:59;25.47;;;16.13;;
18576;SDS011;9418;52.694;13.294;2022-12-18T14:28:26;26.03;;;16.50;;
18576;SDS011;9418;52.694;13.294;2022-12-18T14:30:53;24.57;;;16.03;;
18576;SDS011;9418;52.694;13.294;2022-12-18T14:33:21;27.97;;;17.80;;
18576;SDS011;9418;52.694;13.294;2022-12-18T14:35:54;28.23;;;16.97;;
18576;SDS011;9418;52.694;13.294;2022-12-18T14:38:24;27.90;;;17.43;;
18576;SDS011;9418;52.694;13.294;2022-12-18T14:40:54;22.57;;;15.27;;
18576;SDS011;9418;52.694;13.294;2022-12-18T14:43:22;25.93;;;15.20;;
18576;SDS011;9418;52.694;13.294;2022-12-18T14:45:49;24.70;;;16.57;;